createdAt,value
2022-11-02T00:01:21.488Z,100837.09
2022-11-02T00:06:23.617Z,100853.94
2022-11-02T00:11:25.585Z,100847.72
2022-11-02T00:16:27.440Z,100843.28
2022-11-02T00:21:29.640Z,100846.81
2022-11-02T00:26:34.179Z,100846.81
2022-11-02T00:31:36.115Z,100830.81
2022-11-02T00:36:37.956Z,100829.06
2022-11-02T00:41:40.024Z,100829.94
2022-11-02T00:46:42.012Z,100828.16
2022-11-02T00:51:44.643Z,100834.34
2022-11-02T00:56:46.639Z,100837.88
2022-11-02T01:01:49.817Z,100839.63
2022-11-02T01:06:52.033Z,100841.38
2022-11-02T01:11:54.874Z,100839.59
2022-11-02T01:16:58.159Z,100843.13
2022-11-02T01:22:00.185Z,100848.44
2022-11-02T01:27:02.223Z,100844.91
2022-11-02T01:32:04.270Z,100838.66
2022-11-02T01:37:06.268Z,100843.97
2022-11-02T01:42:20.186Z,100831.56
2022-11-02T01:47:25.100Z,100830.66
2022-11-02T01:52:32.289Z,100836.84
2022-11-02T01:57:36.494Z,100845.72
2022-11-02T02:07:58.431Z,100849.28
2022-11-02T02:13:00.576Z,100859.03
2022-11-02T02:18:11.899Z,100854.63
2022-11-02T02:23:51.122Z,100853.72
2022-11-02T02:28:55.881Z,100844.84
2022-11-02T02:34:07.833Z,100849.28
2022-11-02T02:39:31.545Z,100851.06
2022-11-02T02:44:37.688Z,100850.19
2022-11-02T02:49:45.179Z,100855.53
2022-11-02T02:54:50.305Z,100865.28
2022-11-02T02:59:52.397Z,100866.19
2022-11-02T03:04:54.518Z,100871.50
2022-11-02T03:10:35.352Z,100880.41
2022-11-02T03:15:42.084Z,100892.81
2022-11-02T03:21:06.713Z,100883.06
2022-11-02T03:26:26.431Z,100898.16
2022-11-02T03:31:40.813Z,100903.47
2022-11-02T03:36:54.488Z,100916.78
2022-11-02T03:42:01.037Z,100915.00
2022-11-02T03:47:04.338Z,100917.69
2022-11-02T03:52:11.761Z,100920.34
2022-11-02T03:57:20.318Z,100920.31
2022-11-02T04:02:22.532Z,100932.75
2022-11-02T04:07:28.922Z,100934.53
2022-11-02T04:12:49.510Z,100930.06
2022-11-02T04:18:10.294Z,100930.06
2022-11-02T04:23:30.898Z,100933.63
2022-11-02T04:28:32.894Z,100927.41
2022-11-02T04:33:34.983Z,100928.28
2022-11-02T04:38:43.012Z,100925.63
2022-11-02T04:43:44.829Z,100927.38
2022-11-02T04:48:46.898Z,100918.50
2022-11-02T04:53:49.995Z,100927.38
2022-11-02T04:58:54.040Z,100926.50
2022-11-02T05:03:56.868Z,100934.47
2022-11-02T05:08:58.809Z,100931.81
2022-11-02T05:14:00.818Z,100934.47
2022-11-02T05:19:04.529Z,100933.59
2022-11-02T05:24:08.976Z,100937.13
2022-11-02T05:29:10.775Z,100946.91
2022-11-02T05:34:12.808Z,100950.47
2022-11-02T05:39:14.591Z,100954.91
2022-11-02T05:44:16.695Z,100951.34
2022-11-02T05:49:18.623Z,100964.66
2022-11-02T05:54:21.030Z,100956.66
2022-11-02T05:59:23.081Z,100958.44
2022-11-02T06:04:25.121Z,100956.69
2022-11-02T06:09:28.045Z,100964.66
2022-11-02T06:14:30.040Z,100966.44
2022-11-02T06:19:31.871Z,100969.09
2022-11-02T06:24:33.917Z,100971.75
2022-11-02T06:29:35.769Z,100970.88
2022-11-02T06:34:37.735Z,100971.75
2022-11-02T06:39:39.635Z,100975.31
2022-11-02T06:44:42.335Z,100981.53
2022-11-02T06:49:44.262Z,100982.41
2022-11-02T06:54:46.239Z,100985.06
2022-11-02T06:59:53.663Z,100980.63
2022-11-02T07:04:56.035Z,100996.63
2022-11-02T07:09:57.920Z,100999.28
2022-11-02T07:15:00.060Z,100996.63
2022-11-02T07:20:02.090Z,100997.50
2022-11-02T07:25:04.470Z,100990.38
2022-11-02T07:30:07.840Z,100982.41
2022-11-02T07:35:14.245Z,100983.28
2022-11-02T07:40:16.285Z,100992.16
2022-11-02T07:45:18.090Z,100986.81
2022-11-02T07:50:22.488Z,100985.94
2022-11-02T07:55:27.269Z,100990.38
2022-11-02T08:00:34.940Z,100989.47
2022-11-02T08:05:39.632Z,100983.25
2022-11-02T08:10:43.442Z,100983.22
2022-11-02T08:15:48.940Z,100988.56
2022-11-02T08:20:51.183Z,100987.66
2022-11-02T08:25:54.566Z,100981.44
2022-11-02T08:30:58.502Z,100982.31
2022-11-02T08:36:05.164Z,100976.97
2022-11-02T08:41:07.262Z,100976.97
2022-11-02T08:46:14.939Z,100980.50
2022-11-02T08:51:18.016Z,100979.59
2022-11-02T08:56:20.095Z,100976.88
2022-11-02T09:01:22.171Z,100973.28
2022-11-02T09:06:24.360Z,100973.25
2022-11-02T09:11:26.375Z,100974.97
2022-11-02T09:16:28.397Z,100977.56
2022-11-02T09:21:30.410Z,100974.84
2022-11-02T09:26:32.416Z,100975.66
2022-11-02T09:31:34.568Z,100975.59
2022-11-02T09:36:36.587Z,100974.66
2022-11-02T09:41:58.887Z,100979.06
2022-11-02T09:47:55.916Z,100980.78
2022-11-02T09:52:32.027Z,100983.41
2022-11-02T09:57:34.309Z,100985.19
2022-11-02T10:02:55.979Z,100991.38
2022-11-02T10:08:00.992Z,100997.56
2022-11-02T10:13:09.172Z,100991.34
2022-11-02T10:18:19.233Z,100994.91
2022-11-02T10:23:42.741Z,100990.44
2022-11-02T10:28:48.933Z,100985.97
2022-11-02T10:33:52.937Z,100985.97
2022-11-02T10:39:11.205Z,100982.38
2022-11-02T10:44:25.360Z,100986.78
2022-11-02T10:49:39.233Z,100979.66
2022-11-02T10:54:41.063Z,100983.19
2022-11-02T10:59:43.157Z,100979.59
2022-11-02T11:04:45.164Z,100981.34
2022-11-02T11:09:57.936Z,100973.28
2022-11-02T11:20:39.239Z,100970.97
2022-11-02T11:25:42.480Z,100965.28
2022-11-02T11:31:00.423Z,100954.41
2022-11-02T11:36:02.646Z,100951.41
2022-11-02T11:41:05.262Z,100950.16
2022-11-02T11:46:09.081Z,100957.81
2022-11-02T11:51:31.855Z,100969.13
2022-11-02T11:56:34.630Z,100958.25
2022-11-02T12:01:40.646Z,100950.94
2022-11-02T12:07:06.922Z,100946.28
2022-11-02T12:12:29.221Z,100947.84
2022-11-02T12:18:12.576Z,100944.19
2022-11-02T12:23:32.531Z,100941.44
2022-11-02T12:28:58.693Z,100940.53
2022-11-02T12:34:57.615Z,100932.38
2022-11-02T12:40:11.623Z,100920.53
2022-11-02T12:45:27.000Z,100916.69
2022-11-02T12:50:50.721Z,100919.06
2022-11-02T12:55:56.428Z,100921.41
2022-11-02T13:01:23.957Z,100920.13
2022-11-02T13:06:37.291Z,100917.09
2022-11-02T13:11:58.743Z,100908.69
2022-11-02T13:17:10.014Z,100922.59
2022-11-02T13:22:14.143Z,100922.22
2022-11-02T13:27:38.808Z,100913.72
2022-11-02T13:33:04.621Z,100911.59
2022-11-02T13:38:12.968Z,100914.00
2022-11-02T13:43:45.229Z,100910.03
2022-11-02T13:49:14.010Z,100911.50
2022-11-02T13:54:25.254Z,100920.34
2022-11-02T13:59:43.082Z,100912.16
2022-11-02T14:04:46.454Z,100919.38
2022-11-02T14:09:48.711Z,100934.84
2022-11-02T14:15:18.573Z,100932.41
2022-11-02T14:20:49.205Z,100930.13
2022-11-02T14:25:54.963Z,100926.97
2022-11-02T14:31:05.902Z,100939.06
2022-11-02T14:36:19.982Z,100935.03
2022-11-02T14:41:59.484Z,100937.31
2022-11-02T14:47:09.000Z,100943.13
2022-11-02T14:52:21.512Z,100938.13
2022-11-02T14:57:40.994Z,100952.78
2022-11-02T15:02:44.025Z,100946.03
2022-11-02T15:07:58.599Z,100954.41
2022-11-02T15:13:19.013Z,100960.13
2022-11-02T15:18:23.151Z,100956.88
2022-11-02T15:23:31.698Z,100955.41
2022-11-02T15:28:35.230Z,100962.91
2022-11-02T15:33:44.638Z,100971.22
2022-11-02T15:38:52.573Z,100966.13
2022-11-02T15:44:03.555Z,100979.75
2022-11-02T15:49:41.458Z,100972.88
2022-11-02T15:55:08.224Z,100980.28
2022-11-02T16:00:20.444Z,100980.53
2022-11-02T16:05:24.880Z,100987.81
2022-11-02T16:10:32.546Z,100991.53
2022-11-02T16:15:34.589Z,100986.34
2022-11-02T16:20:40.279Z,100992.66
2022-11-02T16:25:46.734Z,100991.88
2022-11-02T16:31:15.870Z,100984.84
2022-11-02T16:36:27.908Z,100997.44
2022-11-02T16:41:33.115Z,100997.47
2022-11-02T16:46:48.277Z,101000.22
2022-11-02T16:51:54.978Z,101013.59
2022-11-02T16:57:07.157Z,101014.53
2022-11-02T17:02:14.213Z,101015.47
2022-11-02T17:07:30.460Z,101019.06
2022-11-02T17:12:44.011Z,101021.75
2022-11-02T17:17:46.534Z,101030.69
2022-11-02T17:23:02.729Z,101034.25
2022-11-02T17:28:33.809Z,101027.16
2022-11-02T17:33:36.010Z,101038.75
2022-11-02T17:38:38.695Z,101034.31
2022-11-02T17:43:40.980Z,101045.00
2022-11-02T17:48:43.019Z,101045.03
2022-11-02T17:53:45.416Z,101042.38
2022-11-02T17:58:47.684Z,101043.28
2022-11-02T18:03:50.343Z,101042.44
2022-11-02T18:09:11.521Z,101046.00
2022-11-02T18:14:17.102Z,101054.03
2022-11-02T18:19:19.383Z,101054.94
2022-11-02T18:24:22.849Z,101062.09
2022-11-02T18:29:25.356Z,101071.00
2022-11-02T18:34:31.063Z,101068.34
2022-11-02T18:39:33.568Z,101064.81
2022-11-02T18:44:37.727Z,101074.63
2022-11-02T18:49:40.688Z,101069.31
2022-11-02T18:54:43.281Z,101064.00
2022-11-02T18:59:46.091Z,101068.47
2022-11-02T19:04:48.592Z,101073.81
2022-11-02T19:09:56.465Z,101071.16
2022-11-02T19:15:00.891Z,101071.19
2022-11-02T19:20:04.038Z,101070.31
2022-11-02T19:25:06.810Z,101062.38
2022-11-02T19:30:13.823Z,101060.63
2022-11-02T19:35:16.434Z,101060.66
2022-11-02T19:40:19.132Z,101061.59
2022-11-02T19:45:21.523Z,101068.72
2022-11-02T19:50:24.038Z,101070.50
2022-11-02T19:55:29.664Z,101065.19
2022-11-02T20:00:31.898Z,101068.75
2022-11-02T20:05:33.904Z,101075.84
2022-11-02T20:10:35.891Z,101076.75
2022-11-02T20:15:40.555Z,101086.50
2022-11-02T20:20:43.733Z,101086.50
2022-11-02T20:25:47.938Z,101095.38
2022-11-02T20:30:50.691Z,101090.06
2022-11-02T20:35:53.734Z,101090.06
2022-11-02T20:40:58.626Z,101101.56
2022-11-02T20:46:31.616Z,101110.44
2022-11-02T20:51:25.744Z,101106.91
2022-11-02T20:56:27.961Z,101118.44
2022-11-02T21:01:30.372Z,101119.31
2022-11-02T21:06:32.793Z,101116.63
2022-11-02T21:11:53.379Z,101127.22
2022-11-02T21:16:56.203Z,101132.50
2022-11-02T21:22:00.033Z,101139.56
2022-11-02T21:27:02.498Z,101146.66
2022-11-02T21:32:04.674Z,101149.31
2022-11-02T21:37:07.425Z,101163.44
2022-11-02T21:42:09.448Z,101163.41
2022-11-02T21:47:12.735Z,101164.28
2022-11-02T21:52:14.731Z,101158.03
2022-11-02T21:57:16.694Z,101165.97
2022-11-02T22:02:19.221Z,101169.50
2022-11-02T22:07:21.544Z,101171.25
2022-11-02T22:12:49.437Z,101178.31
2022-11-02T22:17:51.505Z,101179.16
2022-11-02T22:22:53.527Z,101182.69
2022-11-02T22:27:55.480Z,101177.31
2022-11-02T22:32:57.490Z,101188.78
2022-11-02T22:38:17.905Z,101188.75
2022-11-02T22:43:19.882Z,101195.78
2022-11-02T22:48:21.915Z,101201.94
2022-11-02T22:53:25.129Z,101204.53
2022-11-02T22:58:28.596Z,101200.97
2022-11-02T23:03:32.137Z,101206.25
2022-11-02T23:08:39.549Z,101206.16
2022-11-02T23:13:42.015Z,101217.63
2022-11-02T23:19:02.759Z,101215.81
2022-11-02T23:24:23.355Z,101218.38
2022-11-02T23:29:44.033Z,101219.22
2022-11-02T23:35:04.768Z,101224.44
2022-11-02T23:40:07.594Z,101227.03
2022-11-02T23:45:10.250Z,101226.94
2022-11-02T23:50:12.159Z,101223.34
2022-11-02T23:55:34.278Z,101221.47
